Time;durP1;ratioP1;P1;durP2;ratioP2;P2;SDS_P1;SDS_P2;PMS_P1;PMS_P2;Temp;Humidity;BMP_temperature;BMP_pressure;BME280_temperature;BME280_humidity;BME280_pressure;Samples;Min_cycle;Max_cycle;Signal;HPM_P1;HPM_P2
2022/06/20 04:05:47;;;;;;;98.30;38.70;;;16.40;99.90;;;;;;6117971;22;20522;-88
2022/06/20 04:11:25;;;;;;;84.20;35.95;;;16.60;99.90;;;;;;6118491;23;20065;-87
2022/06/20 04:14:09;;;;;;;94.55;38.88;;;16.60;99.90;;;;;;6118055;23;20454;-87
2022/06/20 04:16:44;;;;;;;111.13;43.50;;;16.70;99.90;;;;;;6116493;23;20010;-88
2022/06/20 04:19:14;;;;;;;106.05;45.03;;;16.60;99.90;;;;;;6118094;23;20445;-88
2022/06/20 04:21:51;;;;;;;108.28;43.47;;;16.60;99.90;;;;;;6118276;23;20029;-87
2022/06/20 04:24:26;;;;;;;109.57;46.17;;;16.50;99.90;;;;;;6116086;23;20013;-87
2022/06/20 04:27:19;;;;;;;98.97;39.47;;;16.30;99.90;;;;;;6116424;23;20010;-86
2022/06/20 04:29:54;;;;;;;101.50;37.90;;;16.40;99.90;;;;;;6118668;23;20077;-89
2022/06/20 04:32:45;;;;;;;112.47;43.20;;;16.60;99.90;;;;;;6115857;23;20020;-88
2022/06/20 04:35:23;;;;;;;102.72;38.90;;;16.40;99.90;;;;;;6116847;23;20002;-89
2022/06/20 04:37:57;;;;;;;97.05;37.65;;;16.40;99.90;;;;;;6113166;23;20002;-86
2022/06/20 04:40:43;;;;;;;86.10;35.20;;;16.60;99.90;;;;;;6116847;23;20012;-86
2022/06/20 04:43:35;;;;;;;105.13;43.88;;;16.70;99.90;;;;;;6117408;23;20055;-91
2022/06/20 04:46:26;;;;;;;91.90;37.67;;;16.60;99.90;;;;;;6116497;23;20029;-89
2022/06/20 04:48:52;;;;;;;96.07;41.40;;;16.50;99.90;;;;;;6116468;23;20010;-86
2022/06/20 04:51:24;;;;;;;89.82;36.33;;;16.70;99.90;;;;;;6116898;23;20002;-91
2022/06/20 04:53:50;;;;;;;101.05;42.40;;;16.70;99.90;;;;;;6118064;23;20156;-87
2022/06/20 04:56:26;;;;;;;77.38;36.20;;;16.70;99.90;;;;;;6119368;23;20033;-88
2022/06/20 04:59:05;;;;;;;102.30;39.65;;;16.80;99.90;;;;;;6118859;23;20033;-89
2022/06/20 05:01:36;;;;;;;95.30;36.70;;;16.70;99.90;;;;;;6117240;23;20089;-87
2022/06/20 05:04:26;;;;;;;84.30;38.55;;;16.90;99.90;;;;;;6118387;23;20017;-88
2022/06/20 05:06:53;;;;;;;105.60;42.53;;;16.80;99.90;;;;;;6118361;23;20001;-88
2022/06/20 05:09:33;;;;;;;101.47;41.43;;;16.80;99.90;;;;;;6117913;23;20002;-89
2022/06/20 05:12:19;;;;;;;120.78;44.08;;;17.00;99.90;;;;;;6118933;23;20337;-87
2022/06/20 05:15:40;;;;;;;116.47;43.13;;;17.00;99.90;;;;;;6119365;23;20017;-90
2022/06/20 05:18:21;;;;;;;94.25;39.50;;;16.90;99.90;;;;;;6113877;23;20002;-89
2022/06/20 05:20:47;;;;;;;116.60;42.40;;;16.90;99.90;;;;;;6119687;23;20002;-92
2022/06/20 05:23:42;;;;;;;92.60;40.70;;;16.90;99.90;;;;;;6118790;23;20005;-92
2022/06/20 05:26:13;;;;;;;100.40;44.78;;;16.90;99.90;;;;;;6119092;23;20006;-92
2022/06/20 05:28:40;;;;;;;122.07;44.72;;;16.90;99.90;;;;;;6123127;23;20092;-87
2022/06/20 05:31:06;;;;;;;124.00;43.78;;;16.90;99.90;;;;;;6124166;23;20029;-89
2022/06/20 05:33:42;;;;;;;112.10;43.47;;;17.00;99.90;;;;;;6123212;23;20048;-88
2022/06/20 05:36:49;;;;;;;109.40;40.70;;;17.10;99.90;;;;;;6117327;23;20002;-89
2022/06/20 05:39:30;;;;;;;91.78;38.60;;;17.00;99.90;;;;;;6118780;23;20010;-94
2022/06/20 05:41:56;;;;;;;117.47;41.80;;;17.10;99.90;;;;;;6119120;23;20060;-92
2022/06/20 05:44:22;;;;;;;86.15;36.67;;;17.20;99.90;;;;;;6117237;23;20010;-94
2022/06/20 05:47:03;;;;;;;104.05;41.42;;;17.40;99.90;;;;;;6119876;23;20447;-90
2022/06/20 05:49:35;;;;;;;108.95;39.42;;;17.40;99.90;;;;;;6119073;23;20036;-91
2022/06/20 05:52:01;;;;;;;104.25;38.55;;;17.40;99.90;;;;;;6119454;23;20002;-92
2022/06/20 05:54:36;;;;;;;92.40;40.50;;;17.50;99.90;;;;;;6116773;23;20036;-88
2022/06/20 05:57:08;;;;;;;102.72;41.33;;;17.50;99.90;;;;;;6117846;23;20006;-91
2022/06/20 05:59:45;;;;;;;99.65;38.75;;;17.40;99.90;;;;;;6118609;23;20006;-90
2022/06/20 06:02:20;;;;;;;96.85;39.40;;;17.40;99.90;;;;;;6117087;23;20241;-89
2022/06/20 06:05:09;;;;;;;81.28;39.38;;;17.50;99.90;;;;;;6117684;23;20021;-90
2022/06/20 06:07:40;;;;;;;95.63;37.75;;;17.70;99.90;;;;;;6118794;23;20002;-92
2022/06/20 06:10:15;;;;;;;107.20;39.17;;;17.40;99.90;;;;;;6117577;23;20010;-90
2022/06/20 06:13:00;;;;;;;94.22;38.22;;;17.50;99.90;;;;;;6117803;23;20018;-93
2022/06/20 06:15:36;;;;;;;80.78;35.13;;;17.50;99.90;;;;;;6117337;23;20002;-91
2022/06/20 06:18:12;;;;;;;87.25;37.00;;;17.60;99.90;;;;;;6117350;23;20013;-93
2022/06/20 06:20:39;;;;;;;85.40;32.70;;;17.50;99.90;;;;;;6118823;23;20069;-91
2022/06/20 06:23:07;;;;;;;89.68;35.45;;;17.60;99.90;;;;;;6117063;23;20006;-88
2022/06/20 06:25:37;;;;;;;91.90;38.38;;;17.60;99.90;;;;;;6118365;23;20033;-92
2022/06/20 06:28:12;;;;;;;75.45;33.38;;;17.60;99.90;;;;;;6118238;23;20002;-88
2022/06/20 06:30:43;;;;;;;83.05;34.85;;;17.70;99.90;;;;;;6118505;23;20072;-92
2022/06/20 06:33:09;;;;;;;88.22;35.25;;;17.60;99.90;;;;;;6118068;23;20010;-90
2022/06/20 06:35:41;;;;;;;76.75;36.00;;;17.60;99.90;;;;;;6118528;23;20001;-93
2022/06/20 06:38:15;;;;;;;91.68;35.05;;;17.50;99.90;;;;;;6117282;23;20086;-89
2022/06/20 06:40:49;;;;;;;90.53;35.75;;;17.50;99.90;;;;;;6116817;23;20009;-91
2022/06/20 06:43:51;;;;;;;67.35;29.40;;;17.60;99.90;;;;;;6116817;23;20013;-88
2022/06/20 06:46:41;;;;;;;67.68;32.60;;;17.70;99.90;;;;;;6005440;23;20034;-89
2022/06/20 06:49:31;;;;;;;59.20;31.63;;;17.70;99.90;;;;;;6114112;23;20006;-91
2022/06/20 06:52:03;;;;;;;65.53;32.05;;;17.90;99.90;;;;;;6116598;23;20013;-88
2022/06/20 06:54:46;;;;;;;67.72;33.33;;;17.80;99.90;;;;;;6118173;23;20033;-91
2022/06/20 06:57:40;;;;;;;85.97;35.17;;;17.80;99.90;;;;;;6117286;23;20002;-93
2022/06/20 07:00:06;;;;;;;63.92;32.30;;;17.80;99.90;;;;;;6118801;23;20028;-91
2022/06/20 07:02:56;;;;;;;57.95;31.92;;;17.70;99.90;;;;;;6118237;23;20002;-91
2022/06/20 07:05:36;;;;;;;65.72;30.90;;;17.90;99.90;;;;;;6117537;23;20104;-92
2022/06/20 07:08:11;;;;;;;59.40;32.00;;;17.90;99.90;;;;;;6118276;23;20008;-90
2022/06/20 07:11:07;;;;;;;64.18;31.13;;;17.80;99.90;;;;;;6118509;23;20032;-88
2022/06/20 07:14:01;;;;;;;76.13;32.03;;;17.80;99.90;;;;;;6118147;23;20010;-92
2022/06/20 07:16:30;;;;;;;60.03;27.65;;;18.00;99.90;;;;;;6117290;23;20013;-91
2022/06/20 07:18:58;;;;;;;63.67;29.58;;;18.00;99.90;;;;;;6118545;23;20030;-90
2022/06/20 07:21:26;;;;;;;61.53;30.67;;;18.20;99.90;;;;;;6119148;23;20069;-91
2022/06/20 07:23:56;;;;;;;;;;;18.10;99.90;;;;;;6118359;23;20002;-87
2022/06/20 07:26:24;;;;;;;60.00;28.20;;;18.10;99.90;;;;;;6246352;22;19932;-88
2022/06/20 07:28:59;;;;;;;63.37;29.37;;;18.20;99.90;;;;;;6116901;23;20002;-88
2022/06/20 07:31:47;;;;;;;57.72;28.20;;;18.40;99.90;;;;;;6117890;23;20253;-88
2022/06/20 07:34:53;;;;;;;53.65;28.08;;;18.40;99.90;;;;;;6116596;23;20072;-89
2022/06/20 07:37:37;;;;;;;57.55;27.08;;;18.40;99.90;;;;;;6005587;23;20444;-87
2022/06/20 07:40:07;;;;;;;62.35;28.95;;;18.70;99.90;;;;;;6110404;23;20427;-91
2022/06/20 07:43:02;;;;;;;57.22;25.38;;;18.60;99.90;;;;;;6117903;23;20002;-89
2022/06/20 07:45:47;;;;;;;44.20;24.15;;;18.80;99.90;;;;;;6117633;23;20461;-88
2022/06/20 07:48:31;;;;;;;58.33;25.90;;;19.00;99.90;;;;;;6116936;23;20022;-92
2022/06/20 07:51:08;;;;;;;45.70;25.08;;;19.00;99.90;;;;;;6118307;23;20028;-89
2022/06/20 07:53:40;;;;;;;45.67;24.85;;;19.00;99.90;;;;;;6115972;23;20021;-88
2022/06/20 07:56:29;;;;;;;43.45;24.33;;;19.10;99.90;;;;;;6116330;23;20342;-88
2022/06/20 07:59:01;;;;;;;43.58;22.55;;;19.30;99.90;;;;;;6118569;23;20010;-91
2022/06/20 08:01:37;;;;;;;41.58;21.65;;;19.40;99.90;;;;;;6117901;23;20030;-89
2022/06/20 08:04:07;;;;;;;44.97;22.60;;;19.60;99.90;;;;;;6117481;23;20005;-88
2022/06/20 08:06:47;;;;;;;39.70;21.35;;;19.80;99.90;;;;;;6116292;23;20010;-93
2022/06/20 08:09:51;;;;;;;40.30;21.42;;;19.70;99.90;;;;;;6119840;23;20514;-88
2022/06/20 08:12:43;;;;;;;42.67;19.13;;;19.80;99.90;;;;;;6099287;23;20006;-90
2022/06/20 08:15:28;;;;;;;42.90;20.25;;;19.90;99.90;;;;;;6125669;23;20021;-88
2022/06/20 08:17:55;;;;;;;32.03;18.23;;;20.00;99.90;;;;;;6122670;23;20006;-92
2022/06/20 08:20:23;;;;;;;34.83;17.70;;;20.10;99.90;;;;;;6119072;23;20037;-89
2022/06/20 08:23:13;;;;;;;37.05;18.38;;;20.30;99.90;;;;;;6117757;23;20318;-91
2022/06/20 08:25:48;;;;;;;33.95;18.00;;;20.50;99.90;;;;;;6118261;23;20005;-89
2022/06/20 08:28:23;;;;;;;42.17;19.27;;;20.50;99.90;;;;;;6117736;23;20017;-89
2022/06/20 08:30:56;;;;;;;35.67;18.42;;;20.50;99.90;;;;;;6117152;23;20243;-91
2022/06/20 08:33:38;;;;;;;36.08;18.35;;;20.50;99.90;;;;;;6115741;23;20014;-88
2022/06/20 08:36:31;;;;;;;31.63;17.65;;;20.60;99.90;;;;;;6117598;23;20040;-87
2022/06/20 08:39:19;;;;;;;32.45;17.20;;;20.90;99.90;;;;;;6118287;23;20009;-87
2022/06/20 08:42:16;;;;;;;29.38;16.17;;;21.00;99.90;;;;;;6115780;23;20033;-93
2022/06/20 08:45:00;;;;;;;;;;;20.60;99.90;;;;;;6042515;23;20006;-88
2022/06/20 08:47:44;;;;;;;35.90;17.00;;;20.50;99.90;;;;;;6119612;23;20355;-90
2022/06/20 08:50:41;;;;;;;33.08;17.13;;;20.50;99.90;;;;;;6119383;23;20435;-91
2022/06/20 08:53:27;;;;;;;26.42;15.85;;;20.40;99.90;;;;;;6117831;23;20014;-88
2022/06/20 08:56:14;;;;;;;33.88;15.77;;;20.60;99.90;;;;;;6118633;23;20069;-88
2022/06/20 08:59:06;;;;;;;30.63;17.20;;;20.90;99.90;;;;;;6117332;23;20088;-91
2022/06/20 09:01:44;;;;;;;36.47;19.67;;;20.90;99.90;;;;;;6117132;23;20089;-91
2022/06/20 09:04:12;;;;;;;29.65;17.60;;;20.50;99.90;;;;;;6119016;23;20032;-88
2022/06/20 09:06:56;;;;;;;33.55;17.85;;;20.50;99.90;;;;;;6118468;23;20059;-92
2022/06/20 09:09:31;;;;;;;30.13;18.13;;;20.40;99.90;;;;;;6117019;23;20478;-92
2022/06/20 09:12:43;;;;;;;36.13;21.30;;;20.30;99.90;;;;;;6118042;23;20006;-88
2022/06/20 09:15:38;;;;;;;37.70;19.27;;;20.10;99.90;;;;;;6089391;23;20350;-94
2022/06/20 09:18:19;;;;;;;37.60;18.70;;;20.00;99.90;;;;;;6119023;23;20012;-88
2022/06/20 09:21:23;;;;;;;36.53;18.33;;;20.20;99.90;;;;;;6117358;23;20044;-88
2022/06/20 09:23:58;;;;;;;33.33;19.55;;;20.40;99.90;;;;;;6074070;23;20434;-91
2022/06/20 09:26:32;;;;;;;26.40;16.15;;;20.30;99.90;;;;;;6118888;23;20010;-88
2022/06/20 09:29:35;;;;;;;39.45;20.77;;;20.60;99.90;;;;;;6118204;23;20338;-92
2022/06/20 09:32:39;;;;;;;33.97;18.58;;;20.10;99.90;;;;;;6117858;23;20006;-88
2022/06/20 09:36:00;;;;;;;41.13;18.75;;;20.00;99.90;;;;;;6117456;23;20414;-89
2022/06/20 09:38:52;;;;;;;35.03;17.48;;;20.20;99.90;;;;;;6054652;23;20009;-88
2022/06/20 09:41:43;;;;;;;41.72;17.80;;;20.20;99.90;;;;;;6117536;23;20430;-92
2022/06/20 09:44:26;;;;;;;41.58;16.98;;;20.30;99.90;;;;;;6119205;23;20103;-91
2022/06/20 09:46:58;;;;;;;37.33;16.25;;;20.10;99.90;;;;;;6117117;23;20010;-92
2022/06/20 09:50:02;;;;;;;41.63;18.35;;;20.20;99.90;;;;;;6117004;23;20370;-88
2022/06/20 09:53:07;;;;;;;32.42;16.42;;;20.20;99.90;;;;;;6054510;23;20017;-91
2022/06/20 09:55:55;;;;;;;33.85;15.20;;;20.20;99.90;;;;;;6070250;23;20010;-89
2022/06/20 09:58:48;;;;;;;35.17;15.82;;;20.20;99.90;;;;;;6117560;23;20013;-89
2022/06/20 10:01:28;;;;;;;40.08;16.25;;;20.20;99.90;;;;;;6118039;23;20006;-91
2022/06/20 10:04:15;;;;;;;32.72;14.32;;;20.20;99.90;;;;;;6117341;23;20332;-93
2022/06/20 10:07:23;;;;;;;32.58;13.88;;;20.10;99.90;;;;;;6117231;23;20090;-92
2022/06/20 10:10:09;;;;;;;33.33;13.10;;;20.20;99.90;;;;;;6106663;23;20342;-88
2022/06/20 10:12:42;;;;;;;28.48;12.82;;;20.30;99.90;;;;;;6116874;23;20040;-90
2022/06/20 10:15:15;;;;;;;38.70;13.85;;;20.20;99.90;;;;;;6117129;23;20091;-88
2022/06/20 10:18:04;;;;;;;25.83;13.00;;;20.20;99.90;;;;;;6118071;23;20041;-92
2022/06/20 10:21:07;;;;;;;31.42;13.45;;;20.30;99.90;;;;;;6118162;23;20040;-90
2022/06/20 10:23:51;;;;;;;26.13;11.52;;;20.40;99.90;;;;;;6117857;23;20010;-92
2022/06/20 10:26:45;;;;;;;24.60;11.55;;;20.70;99.90;;;;;;6116896;23;20081;-88
2022/06/20 10:29:22;;;;;;;30.00;12.88;;;20.80;99.90;;;;;;6119027;23;20002;-94
2022/06/20 10:32:06;;;;;;;23.60;11.73;;;20.80;99.90;;;;;;6118475;23;20005;-88
2022/06/20 10:35:10;;;;;;;20.13;12.20;;;20.70;99.90;;;;;;6117977;23;20295;-94
2022/06/20 10:38:03;;;;;;;27.85;11.73;;;20.70;99.90;;;;;;6118577;23;20033;-90
2022/06/20 10:40:59;;;;;;;24.33;11.45;;;20.50;99.90;;;;;;6116438;23;20081;-88
2022/06/20 10:43:47;;;;;;;27.52;12.25;;;20.60;99.90;;;;;;6117109;23;20014;-90
2022/06/20 10:46:18;;;;;;;25.02;11.35;;;20.60;99.90;;;;;;6118407;23;20002;-89
2022/06/20 10:48:59;;;;;;;22.92;11.75;;;20.80;99.90;;;;;;6116766;23;20430;-89
2022/06/20 10:51:56;;;;;;;21.10;10.70;;;21.00;99.90;;;;;;6116885;23;20009;-88
2022/06/20 10:54:30;;;;;;;22.13;11.10;;;21.20;99.90;;;;;;6023251;23;20094;-89
2022/06/20 10:57:47;;;;;;;19.98;10.30;;;21.30;99.90;;;;;;6135870;23;20006;-88
2022/06/20 11:00:49;;;;;;;21.80;11.32;;;21.30;99.90;;;;;;6094179;23;20002;-94
2022/06/20 11:03:40;;;;;;;;;;;;;;;;;;;;;
2022/06/20 11:06:37;;;;;;;24.35;10.77;;;21.30;99.90;;;;;;6119292;23;20088;-93
2022/06/20 11:09:15;;;;;;;22.10;12.32;;;21.50;99.90;;;;;;6118391;23;20037;-92
2022/06/20 11:11:47;;;;;;;21.20;11.68;;;21.30;99.90;;;;;;6118786;23;20006;-93
2022/06/20 11:14:33;;;;;;;19.35;10.57;;;21.20;99.90;;;;;;6117490;23;20018;-92
2022/06/20 11:17:39;;;;;;;16.33;9.35;;;21.50;99.90;;;;;;6119149;23;20077;-94
2022/06/20 11:20:51;;;;;;;20.17;10.15;;;21.30;99.90;;;;;;6113729;23;20010;-90
2022/06/20 11:23:52;;;;;;;22.38;10.35;;;21.60;99.90;;;;;;6030744;23;20456;-92
2022/06/20 11:26:47;;;;;;;25.38;10.43;;;21.70;99.90;;;;;;6006274;23;20038;-90
2022/06/20 11:29:37;;;;;;;20.80;10.90;;;21.50;99.90;;;;;;6112632;23;20009;-91
2022/06/20 11:32:24;;;;;;;19.63;10.30;;;21.30;99.90;;;;;;6118340;23;20075;-91
2022/06/20 11:35:06;;;;;;;16.92;10.30;;;21.40;99.90;;;;;;6117272;23;20441;-91
2022/06/20 11:38:12;;;;;;;14.45;9.75;;;21.60;99.90;;;;;;6118234;23;20002;-93
2022/06/20 11:40:38;;;;;;;19.45;10.05;;;21.70;99.90;;;;;;6117918;23;20006;-93
2022/06/20 11:43:24;;;;;;;18.20;9.30;;;21.70;99.90;;;;;;6117186;23;20013;-93
2022/06/20 11:45:58;;;;;;;21.98;10.20;;;22.00;99.90;;;;;;6111658;23;20013;-88
2022/06/20 11:48:53;;;;;;;15.50;9.40;;;22.10;99.90;;;;;;6115151;23;20575;-90
2022/06/20 11:51:53;;;;;;;18.75;9.43;;;22.10;99.90;;;;;;6098319;23;20013;-90
2022/06/20 11:54:53;;;;;;;13.32;8.75;;;21.80;99.90;;;;;;6116388;23;20588;-90
2022/06/20 11:57:34;;;;;;;18.00;9.77;;;21.90;99.90;;;;;;6115878;23;20002;-87
2022/06/20 12:00:09;;;;;;;14.65;9.38;;;22.30;99.90;;;;;;6116181;23;20474;-93
2022/06/20 12:02:50;;;;;;;18.95;9.85;;;22.40;99.90;;;;;;6115773;23;20396;-89
2022/06/20 12:05:19;;;;;;;21.48;10.73;;;22.10;99.90;;;;;;6116401;23;20013;-88
2022/06/20 12:07:53;;;;;;;19.73;9.77;;;22.10;99.90;;;;;;6117509;23;20006;-89
2022/06/20 12:10:22;;;;;;;17.85;10.00;;;22.30;99.90;;;;;;6117517;23;20012;-87
2022/06/20 12:13:01;;;;;;;17.13;9.25;;;22.40;99.90;;;;;;6115750;23;20093;-87
2022/06/20 12:15:44;;;;;;;21.73;9.88;;;22.10;99.90;;;;;;6116629;23;20078;-88
2022/06/20 12:18:37;;;;;;;19.05;9.98;;;22.30;99.90;;;;;;6116834;23;20013;-87
2022/06/20 12:23:59;;;;;;;20.55;9.95;;;22.20;99.90;;;;;;6118209;23;20016;-89
2022/06/20 12:26:31;;;;;;;21.17;9.27;;;22.00;99.90;;;;;;6117521;23;20009;-88
2022/06/20 12:29:01;;;;;;;15.73;8.68;;;22.00;99.90;;;;;;6118048;23;20085;-87
2022/06/20 12:31:46;;;;;;;19.23;8.98;;;22.20;99.90;;;;;;6117077;23;19998;-90
2022/06/20 12:34:33;;;;;;;14.10;8.57;;;22.50;99.90;;;;;;6118241;23;20041;-89
2022/06/20 12:37:04;;;;;;;17.88;8.52;;;22.70;99.90;;;;;;6118890;23;19998;-91
2022/06/20 12:39:45;;;;;;;11.75;7.80;;;22.90;99.90;;;;;;6116745;23;20095;-89
2022/06/20 12:42:31;;;;;;;14.95;8.70;;;23.10;99.90;;;;;;6117542;23;20463;-90
2022/06/20 12:45:03;;;;;;;14.57;7.53;;;23.00;99.90;;;;;;6117314;23;20010;-94
2022/06/20 12:47:53;;;;;;;15.15;7.53;;;22.40;99.90;;;;;;6116530;23;20006;-92
2022/06/20 12:50:38;;;;;;;13.98;8.40;;;22.70;99.90;;;;;;6118888;23;20006;-92
2022/06/20 12:53:39;;;;;;;14.90;8.63;;;23.00;99.90;;;;;;6117504;23;20017;-93
2022/06/20 12:56:42;;;;;;;15.07;7.85;;;23.30;99.90;;;;;;6098262;23;20033;-92
2022/06/20 12:59:29;;;;;;;17.50;7.85;;;23.20;99.90;;;;;;6117645;23;20010;-90
2022/06/20 13:02:33;;;;;;;14.83;7.60;;;23.30;99.90;;;;;;6117420;23;20044;-92
2022/06/20 13:05:16;;;;;;;14.95;8.10;;;23.20;99.90;;;;;;6108090;23;20023;-93
2022/06/20 13:07:42;;;;;;;16.50;7.80;;;23.20;99.90;;;;;;6157071;23;20001;-94
2022/06/20 13:10:39;;;;;;;15.93;7.80;;;23.10;99.90;;;;;;6184286;23;20006;-94
2022/06/20 13:13:35;;;;;;;14.00;7.97;;;23.20;99.90;;;;;;6093539;23;20390;-88
2022/06/20 13:16:22;;;;;;;16.65;7.50;;;23.30;99.90;;;;;;6119704;23;20009;-92
2022/06/20 13:19:05;;;;;;;13.70;7.32;;;23.20;99.90;;;;;;6093247;23;20016;-89
2022/06/20 13:22:10;;;;;;;16.10;8.02;;;23.50;99.90;;;;;;6092927;23;20055;-94
2022/06/20 13:24:45;;;;;;;12.52;7.65;;;23.50;99.90;;;;;;6101844;23;20010;-93
2022/06/20 13:27:55;;;;;;;17.67;8.25;;;23.30;99.90;;;;;;6097963;22;20024;-94
2022/06/20 13:30:41;;;;;;;12.57;7.40;;;23.30;99.90;;;;;;6117068;23;20084;-92
2022/06/20 13:33:31;;;;;;;14.63;7.75;;;23.40;99.90;;;;;;6118842;23;20059;-92
2022/06/20 13:36:50;;;;;;;;;;;;;;;;;;;;;
2022/06/20 13:39:49;;;;;;;11.90;6.70;;;23.60;99.90;;;;;;6136807;23;19999;-87
2022/06/20 13:42:26;;;;;;;13.18;7.07;;;23.90;99.90;;;;;;6110779;23;20014;-91
2022/06/20 13:45:20;;;;;;;16.17;6.93;;;24.00;99.90;;;;;;6093685;23;20409;-92
2022/06/20 13:47:46;;;;;;;11.88;6.97;;;24.10;99.90;;;;;;6119138;23;20005;-90
2022/06/20 13:50:25;;;;;;;14.80;7.20;;;23.90;99.90;;;;;;6119436;23;19998;-93
2022/06/20 13:53:13;;;;;;;11.63;6.82;;;23.50;99.90;;;;;;6092286;23;20018;-93
2022/06/20 13:56:14;;;;;;;11.23;7.10;;;23.70;99.90;;;;;;6092834;23;20002;-93
2022/06/20 13:59:05;;;;;;;11.02;6.43;;;23.70;99.90;;;;;;6117542;23;20472;-94
2022/06/20 14:01:38;;;;;;;12.80;6.38;;;23.80;99.90;;;;;;6145153;23;20010;-92
2022/06/20 14:04:13;;;;;;;9.52;6.22;;;23.70;99.90;;;;;;6117832;23;20093;-92
2022/06/20 14:06:53;;;;;;;13.93;6.63;;;23.60;99.90;;;;;;6116663;23;20032;-93
2022/06/20 14:09:28;;;;;;;9.73;6.55;;;23.40;99.90;;;;;;6116635;23;20006;-94
2022/06/20 14:12:06;;;;;;;12.73;6.47;;;23.50;99.90;;;;;;6117348;23;20002;-91
2022/06/20 14:14:39;;;;;;;10.40;5.97;;;23.80;99.90;;;;;;6116731;23;20438;-94
2022/06/20 14:17:28;;;;;;;15.98;6.72;;;23.80;99.90;;;;;;6116451;23;20036;-91
2022/06/20 14:19:57;;;;;;;12.30;6.57;;;23.40;99.90;;;;;;6116153;23;20062;-91
2022/06/20 14:22:31;;;;;;;14.23;6.10;;;23.50;99.90;;;;;;6116338;23;20139;-90
2022/06/20 14:25:00;;;;;;;9.93;6.50;;;23.60;99.90;;;;;;6116581;23;20002;-90
2022/06/20 14:27:29;;;;;;;13.35;6.47;;;23.70;99.90;;;;;;6117902;23;20036;-92
2022/06/20 14:30:06;;;;;;;14.65;6.85;;;23.70;99.90;;;;;;6117636;23;20362;-95
2022/06/20 14:32:42;;;;;;;15.73;6.35;;;23.70;99.90;;;;;;6119360;23;20006;-89
2022/06/20 14:35:24;;;;;;;11.38;5.90;;;23.60;99.90;;;;;;6118076;23;20017;-93
2022/06/20 14:38:06;;;;;;;9.82;5.88;;;23.70;99.90;;;;;;6115573;23;20010;-88
2022/06/20 14:41:08;;;;;;;;;;;;;;;;;;;;;
2022/06/20 14:44:09;;;;;;;;;;;;;;;;;;;;;
2022/06/20 14:46:56;;;;;;;8.68;6.30;;;23.60;99.90;;;;;;6116993;23;20034;-93
2022/06/20 14:49:46;;;;;;;8.52;5.68;;;23.70;99.90;;;;;;6115909;23;20326;-91
2022/06/20 14:52:47;;;;;;;13.63;5.55;;;23.40;99.90;;;;;;6127891;23;20029;-92
2022/06/20 14:55:28;;;;;;;12.48;5.75;;;24.50;99.90;;;;;;6122927;23;20010;-94
2022/06/20 14:58:30;;;;;;;11.27;5.75;;;23.40;99.90;;;;;;6122401;23;20009;-94
2022/06/20 15:01:02;;;;;;;12.32;5.55;;;23.50;99.90;;;;;;6125868;23;20010;-89
2022/06/20 15:03:55;;;;;;;10.13;5.53;;;23.40;99.90;;;;;;6118425;23;19998;-88
2022/06/20 15:06:35;;;;;;;10.27;5.60;;;23.40;99.90;;;;;;6120218;23;20002;-89
2022/06/20 15:09:33;;;;;;;;;;;;;;;;;;;;;
2022/06/20 15:15:53;;;;;;;;;;;;;;;;;;;;;
2022/06/20 15:26:00;;;;;;;7.75;4.82;;;23.80;99.90;;;;;;5984450;23;20012;-91
2022/06/20 15:29:34;;;;;;;9.25;4.82;;;23.80;99.90;;;;;;5930415;23;19997;-94
2022/06/20 15:32:49;;;;;;;7.75;5.05;;;23.70;99.90;;;;;;5936707;23;20009;-90
2022/06/20 15:38:30;;;;;;;8.57;5.05;;;23.50;99.90;;;;;;6046108;23;20003;-94
2022/06/20 15:41:22;;;;;;;11.15;5.00;;;23.50;99.90;;;;;;6038005;23;20023;-94
2022/06/20 15:43:50;;;;;;;12.32;5.03;;;23.50;99.90;;;;;;6006501;23;20039;-91
2022/06/20 15:50:19;;;;;;;12.00;5.80;;;23.50;99.90;;;;;;6030283;23;20030;-91
2022/06/20 15:53:11;;;;;;;12.20;5.32;;;23.50;99.90;;;;;;6026321;23;20058;-94
2022/06/20 15:56:08;;;;;;;;;;;;;;;;;;;;;
2022/06/20 16:12:51;;;;;;;;;;;;;;;;;;;;;
2022/06/20 16:15:54;;;;;;;;;;;;;;;;;;;;;
2022/06/20 16:18:46;;;;;;;;;;;;;;;;;;;;;
2022/06/20 16:22:11;;;;;;;;;;;;;;;;;;;;;
2022/06/20 16:24:49;;;;;;;;;;;;;;;;;;;;;
2022/06/20 16:27:34;;;;;;;;;;;;;;;;;;;;;
2022/06/20 16:30:56;;;;;;;;;;;;;;;;;;;;;
2022/06/20 16:33:45;;;;;;;12.70;5.90;;;23.20;99.90;;;;;;6096242;23;20097;-90
2022/06/20 16:39:52;;;;;;;13.52;5.90;;;23.90;99.90;;;;;;6112326;23;20010;-90
2022/06/20 16:43:13;;;;;;;;;;;;;;;;;;;;;
2022/06/20 16:46:10;;;;;;;11.80;5.47;;;23.80;99.90;;;;;;6118166;23;20010;-95
2022/06/20 16:48:50;;;;;;;15.20;5.80;;;23.80;99.90;;;;;;6116354;23;20033;-90
2022/06/20 16:51:37;;;;;;;13.25;6.45;;;23.70;99.90;;;;;;6116732;23;20052;-91
2022/06/20 16:54:40;;;;;;;;;;;23.60;99.90;;;;;;6117839;23;20017;-96
2022/06/20 16:58:17;;;;;;;11.68;6.07;;;23.80;99.90;;;;;;6117971;23;19904;-91
2022/06/20 17:01:30;;;;;;;;;;;;;;;;;;;;;
2022/06/20 17:07:33;;;;;;;;;;;;;;;;;;;;;
2022/06/20 17:10:25;;;;;;;;;;;24.20;99.90;;;;;;6180944;23;20079;-91
2022/06/20 17:13:14;;;;;;;13.98;5.45;;;24.20;99.90;;;;;;6154049;22;19909;-94
2022/06/20 17:15:52;;;;;;;14.00;5.78;;;24.30;99.90;;;;;;6242185;22;20002;-94
2022/06/20 17:18:47;;;;;;;;;;;24.30;99.90;;;;;;6146515;23;20002;-91
2022/06/20 17:21:50;;;;;;;16.25;5.70;;;24.30;99.90;;;;;;6148944;22;20248;-92
2022/06/20 17:28:31;;;;;;;;;;;;;;;;;;;;;
2022/06/20 17:31:58;;;;;;;12.90;5.85;;;24.20;99.90;;;;;;6141856;23;20064;-91
2022/06/20 17:34:49;;;;;;;;;;;;;;;;;;;;;
2022/06/20 17:38:08;;;;;;;14.73;6.25;;;24.20;99.90;;;;;;6090994;23;20082;-93
2022/06/20 17:51:49;;;;;;;;;;;;;;;;;;;;;
2022/06/20 17:55:03;;;;;;;12.23;6.03;;;23.60;99.90;;;;;;5792777;24;20029;-93
2022/06/20 18:01:56;;;;;;;;;;;;;;;;;;;;;
2022/06/20 18:05:21;;;;;;;;;;;;;;;;;;;;;
2022/06/20 18:09:01;;;;;;;11.38;6.13;;;23.00;99.90;;;;;;6117594;22;20109;-89
2022/06/20 18:11:54;;;;;;;13.48;5.93;;;22.80;99.90;;;;;;6179842;23;20005;-94
2022/06/20 18:14:29;;;;;;;13.10;6.60;;;22.70;99.90;;;;;;6085102;23;20019;-92
2022/06/20 18:21:16;;;;;;;14.05;6.45;;;22.40;99.90;;;;;;6176241;23;20040;-91
2022/06/20 18:24:16;;;;;;;;;;;;;;;;;;;;;
2022/06/20 18:27:06;;;;;;;13.52;6.20;;;22.50;99.90;;;;;;6148185;23;20080;-93
2022/06/20 18:30:12;;;;;;;11.95;5.97;;;22.50;99.90;;;;;;6229950;22;20337;-92
2022/06/20 18:36:49;;;;;;;;;;;;;;;;;;;;;
2022/06/20 18:39:39;;;;;;;;;;;;;;;;;;;;;
2022/06/20 18:46:08;;;;;;;16.95;6.57;;;22.10;99.90;;;;;;6145295;23;20005;-91
2022/06/20 18:52:04;;;;;;;17.13;5.60;;;22.10;99.90;;;;;;6165904;22;20006;-93
2022/06/20 21:36:04;;;;;;;20.08;6.70;;;19.40;99.90;;;;;;6282546;22;20023;-90
2022/06/20 21:38:30;;;;;;;17.30;5.82;;;19.40;99.90;;;;;;6280389;22;20062;-90
2022/06/20 21:41:03;;;;;;;14.45;5.80;;;19.30;99.90;;;;;;6254482;22;20000;-89
2022/06/20 21:43:31;;;;;;;18.48;6.22;;;19.30;99.90;;;;;;6252731;22;20000;-89
2022/06/20 21:45:57;;;;;;;18.48;6.00;;;19.20;99.90;;;;;;6247986;22;20008;-90
2022/06/20 21:48:26;;;;;;;19.25;6.45;;;19.20;99.90;;;;;;6247584;22;20343;-89
2022/06/20 21:51:08;;;;;;;17.55;6.68;;;19.10;99.90;;;;;;6247848;22;20004;-88
2022/06/20 21:53:39;;;;;;;19.23;6.43;;;19.10;99.90;;;;;;6248706;22;20099;-88
2022/06/20 21:56:24;;;;;;;19.38;6.20;;;19.00;99.90;;;;;;6248570;22;20087;-89
2022/06/20 21:58:59;;;;;;;14.73;6.00;;;19.10;99.90;;;;;;6247632;22;20118;-90
2022/06/20 22:04:29;;;;;;;23.65;5.82;;;19.00;99.90;;;;;;6274563;22;20488;-89
2022/06/20 22:06:57;;;;;;;23.33;6.32;;;18.90;99.90;;;;;;6247563;22;20004;-89
2022/06/20 22:09:32;;;;;;;23.02;5.95;;;18.80;99.90;;;;;;6247561;22;20012;-90
2022/06/20 22:11:57;;;;;;;16.65;6.50;;;19.00;99.90;;;;;;6247379;22;20095;-89
2022/06/20 22:14:23;;;;;;;20.40;6.53;;;18.80;99.90;;;;;;6247823;22;20011;-90
2022/06/20 22:16:56;;;;;;;26.38;6.78;;;18.70;99.90;;;;;;6247727;22;20010;-89
2022/06/20 22:19:31;;;;;;;12.95;5.97;;;18.60;99.90;;;;;;6247386;22;20004;-90
2022/06/20 22:22:09;;;;;;;20.23;6.20;;;18.70;99.90;;;;;;6247891;22;20010;-91
2022/06/20 22:24:49;;;;;;;18.20;5.45;;;18.80;99.90;;;;;;6248353;22;20042;-90
2022/06/20 22:27:19;;;;;;;19.80;6.10;;;18.90;99.90;;;;;;6247773;22;20003;-89
2022/06/20 22:30:01;;;;;;;26.70;7.35;;;18.80;99.90;;;;;;6247442;22;19999;-89
2022/06/20 22:32:43;;;;;;;16.48;6.22;;;18.80;99.90;;;;;;6247079;22;20359;-89
2022/06/20 22:35:21;;;;;;;24.73;6.60;;;18.80;99.90;;;;;;6242960;23;20468;-88
2022/06/20 22:37:51;;;;;;;;;;;18.70;99.90;;;;;;6242743;23;20054;-89
2022/06/20 22:40:20;;;;;;;16.00;6.20;;;18.60;99.90;;;;;;6242436;23;19899;-90
2022/06/20 22:42:58;;;;;;;21.65;6.20;;;18.80;99.90;;;;;;6242228;23;20011;-89